sensor_id;sensor_type;location;lat;lon;timestamp;pressure;altitude;pressure_sealevel;temperature;humidity
28448;BME280;15675;52.870;-1.416;2023-03-19T00:00:48;100448.13;;;8.05;100.00
28448;BME280;15675;52.870;-1.416;2023-03-19T00:03:13;100455.81;;;8.01;100.00
28448;BME280;15675;52.870;-1.416;2023-03-19T00:05:39;100457.38;;;7.85;100.00
28448;BME280;15675;52.870;-1.416;2023-03-19T00:08:05;100438.59;;;8.00;100.00
28448;BME280;15675;52.870;-1.416;2023-03-19T00:10:31;100443.69;;;7.95;100.00
28448;BME280;15675;52.870;-1.416;2023-03-19T00:12:56;100432.56;;;8.02;100.00
28448;BME280;15675;52.870;-1.416;2023-03-19T00:15:22;100433.34;;;7.93;100.00
28448;BME280;15675;52.870;-1.416;2023-03-19T00:17:47;100435.13;;;8.01;100.00
28448;BME280;15675;52.870;-1.416;2023-03-19T00:20:13;100454.78;;;7.83;100.00
28448;BME280;15675;52.870;-1.416;2023-03-19T00:22:39;100446.19;;;7.86;100.00
28448;BME280;15675;52.870;-1.416;2023-03-19T00:25:05;100451.41;;;7.92;100.00
28448;BME280;15675;52.870;-1.416;2023-03-19T00:27:31;100440.41;;;8.10;100.00
28448;BME280;15675;52.870;-1.416;2023-03-19T00:29:56;100449.94;;;8.17;100.00
28448;BME280;15675;52.870;-1.416;2023-03-19T00:32:22;100455.81;;;8.01;100.00
28448;BME280;15675;52.870;-1.416;2023-03-19T00:34:47;100451.34;;;7.83;100.00
28448;BME280;15675;52.870;-1.416;2023-03-19T00:37:13;100447.78;;;7.73;100.00
28448;BME280;15675;52.870;-1.416;2023-03-19T00:39:40;100453.03;;;7.82;100.00
28448;BME280;15675;52.870;-1.416;2023-03-19T00:42:06;100452.97;;;7.74;100.00
28448;BME280;15675;52.870;-1.416;2023-03-19T00:44:31;100472.66;;;7.65;100.00
28448;BME280;15675;52.870;-1.416;2023-03-19T00:46:57;100468.84;;;8.08;100.00
28448;BME280;15675;52.870;-1.416;2023-03-19T00:49:22;100464.38;;;7.97;100.00
28448;BME280;15675;52.870;-1.416;2023-03-19T00:51:48;100477.25;;;7.89;100.00
28448;BME280;15675;52.870;-1.416;2023-03-19T00:54:13;100481.53;;;7.85;100.00
28448;BME280;15675;52.870;-1.416;2023-03-19T00:56:39;100491.00;;;7.89;100.00
28448;BME280;15675;52.870;-1.416;2023-03-19T00:59:05;100477.44;;;8.07;100.00
28448;BME280;15675;52.870;-1.416;2023-03-19T01:01:31;100476.28;;;7.81;100.00
28448;BME280;15675;52.870;-1.416;2023-03-19T01:03:56;100483.91;;;7.67;100.00
28448;BME280;15675;52.870;-1.416;2023-03-19T01:06:22;100484.63;;;7.58;100.00
28448;BME280;15675;52.870;-1.416;2023-03-19T01:08:48;100487.38;;;7.70;100.00
28448;BME280;15675;52.870;-1.416;2023-03-19T01:11:14;100484.56;;;7.52;100.00
28448;BME280;15675;52.870;-1.416;2023-03-19T01:13:41;100494.97;;;7.59;100.00
28448;BME280;15675;52.870;-1.416;2023-03-19T01:16:08;100501.53;;;7.33;100.00
28448;BME280;15675;52.870;-1.416;2023-03-19T01:18:35;100499.00;;;7.37;100.00
28448;BME280;15675;52.870;-1.416;2023-03-19T01:21:00;100505.19;;;7.49;100.00
28448;BME280;15675;52.870;-1.416;2023-03-19T01:23:26;100499.66;;;7.22;100.00
28448;BME280;15675;52.870;-1.416;2023-03-19T01:25:52;100495.50;;;7.34;100.00
28448;BME280;15675;52.870;-1.416;2023-03-19T01:28:18;100501.81;;;7.54;100.00
28448;BME280;15675;52.870;-1.416;2023-03-19T01:30:44;100498.25;;;7.46;100.00
28448;BME280;15675;52.870;-1.416;2023-03-19T01:33:10;100498.22;;;7.43;100.00
28448;BME280;15675;52.870;-1.416;2023-03-19T01:35:36;100503.59;;;7.58;100.00
28448;BME280;15675;52.870;-1.416;2023-03-19T01:38:01;100505.50;;;7.76;100.00
28448;BME280;15675;52.870;-1.416;2023-03-19T01:40:28;100512.13;;;7.53;100.00
28448;BME280;15675;52.870;-1.416;2023-03-19T01:42:56;100503.59;;;7.58;100.00
28448;BME280;15675;52.870;-1.416;2023-03-19T01:45:34;100508.41;;;7.34;100.00
28448;BME280;15675;52.870;-1.416;2023-03-19T01:48:02;100502.63;;;7.52;100.00
28448;BME280;15675;52.870;-1.416;2023-03-19T01:50:41;100530.06;;;7.42;100.00
28448;BME280;15675;52.870;-1.416;2023-03-19T01:53:10;100532.78;;;7.53;100.00
28448;BME280;15675;52.870;-1.416;2023-03-19T01:55:36;100548.41;;;7.64;100.00
28448;BME280;15675;52.870;-1.416;2023-03-19T01:58:04;100550.34;;;7.14;100.00
28448;BME280;15675;52.870;-1.416;2023-03-19T02:00:31;100540.16;;;7.26;100.00
28448;BME280;15675;52.870;-1.416;2023-03-19T02:03:00;100537.22;;;7.00;100.00
28448;BME280;15675;52.870;-1.416;2023-03-19T02:05:26;100537.22;;;7.02;100.00
28448;BME280;15675;52.870;-1.416;2023-03-19T02:07:55;100548.97;;;6.83;100.00
28448;BME280;15675;52.870;-1.416;2023-03-19T02:10:23;100550.78;;;6.88;100.00
28448;BME280;15675;52.870;-1.416;2023-03-19T02:12:49;100555.22;;;6.96;100.00
28448;BME280;15675;52.870;-1.416;2023-03-19T02:15:15;100560.16;;;6.83;100.00
28448;BME280;15675;52.870;-1.416;2023-03-19T02:17:41;100551.25;;;6.64;100.00
28448;BME280;15675;52.870;-1.416;2023-03-19T02:28:25;100557.66;;;6.89;100.00
28448;BME280;15675;52.870;-1.416;2023-03-19T02:30:51;100557.63;;;6.86;100.00
28448;BME280;15675;52.870;-1.416;2023-03-19T02:33:17;100553.53;;;6.99;100.00
28448;BME280;15675;52.870;-1.416;2023-03-19T02:35:45;100556.91;;;6.97;100.00
28448;BME280;15675;52.870;-1.416;2023-03-19T02:38:14;100557.78;;;6.96;100.00
28448;BME280;15675;52.870;-1.416;2023-03-19T02:40:45;100566.34;;;6.93;100.00
28448;BME280;15675;52.870;-1.416;2023-03-19T02:43:12;100572.13;;;7.35;100.00
28448;BME280;15675;52.870;-1.416;2023-03-19T02:45:38;100570.13;;;7.15;100.00
28448;BME280;15675;52.870;-1.416;2023-03-19T02:48:04;100559.97;;;7.28;100.00
28448;BME280;15675;52.870;-1.416;2023-03-19T02:50:29;100567.00;;;7.38;100.00
28448;BME280;15675;52.870;-1.416;2023-03-19T02:52:55;100566.88;;;7.27;100.00
28448;BME280;15675;52.870;-1.416;2023-03-19T02:55:21;100572.06;;;7.29;100.00
28448;BME280;15675;52.870;-1.416;2023-03-19T02:57:46;100559.38;;;7.46;100.00
28448;BME280;15675;52.870;-1.416;2023-03-19T03:00:14;100565.97;;;7.25;100.00
28448;BME280;15675;52.870;-1.416;2023-03-19T03:02:41;100568.78;;;7.42;100.00
28448;BME280;15675;52.870;-1.416;2023-03-19T03:05:07;100579.78;;;7.27;100.00
28448;BME280;15675;52.870;-1.416;2023-03-19T03:07:33;100575.63;;;7.37;100.00
28448;BME280;15675;52.870;-1.416;2023-03-19T03:09:59;100584.81;;;7.19;100.00
28448;BME280;15675;52.870;-1.416;2023-03-19T03:12:25;100579.75;;;7.25;100.00
28448;BME280;15675;52.870;-1.416;2023-03-19T03:14:50;100583.78;;;7.08;100.00
28448;BME280;15675;52.870;-1.416;2023-03-19T03:17:16;100580.91;;;6.91;100.00
28448;BME280;15675;52.870;-1.416;2023-03-19T03:19:41;100593.81;;;6.91;100.00
28448;BME280;15675;52.870;-1.416;2023-03-19T03:22:09;100606.03;;;7.00;100.00
28448;BME280;15675;52.870;-1.416;2023-03-19T03:24:35;100598.63;;;6.71;100.00
28448;BME280;15675;52.870;-1.416;2023-03-19T03:27:01;100598.88;;;6.83;100.00
28448;BME280;15675;52.870;-1.416;2023-03-19T03:29:26;100602.41;;;6.88;100.00
28448;BME280;15675;52.870;-1.416;2023-03-19T03:31:52;100609.91;;;6.74;100.00
28448;BME280;15675;52.870;-1.416;2023-03-19T03:34:18;100612.06;;;7.00;100.00
28448;BME280;15675;52.870;-1.416;2023-03-19T03:36:43;100618.88;;;6.98;100.00
28448;BME280;15675;52.870;-1.416;2023-03-19T03:39:12;100608.09;;;6.70;100.00
28448;BME280;15675;52.870;-1.416;2023-03-19T03:41:38;100621.72;;;6.62;100.00
28448;BME280;15675;52.870;-1.416;2023-03-19T03:44:04;100615.72;;;6.63;100.00
28448;BME280;15675;52.870;-1.416;2023-03-19T03:46:30;100611.25;;;6.55;100.00
28448;BME280;15675;52.870;-1.416;2023-03-19T03:48:55;100615.75;;;6.66;100.00
28448;BME280;15675;52.870;-1.416;2023-03-19T03:51:21;100618.66;;;6.83;100.00
28448;BME280;15675;52.870;-1.416;2023-03-19T03:53:47;100620.91;;;6.64;100.00
28448;BME280;15675;52.870;-1.416;2023-03-19T03:56:12;100623.56;;;6.70;100.00
28448;BME280;15675;52.870;-1.416;2023-03-19T03:58:38;100630.13;;;7.02;100.00
28448;BME280;15675;52.870;-1.416;2023-03-19T04:01:04;100627.97;;;6.76;100.00
28448;BME280;15675;52.870;-1.416;2023-03-19T04:03:32;100623.69;;;6.77;100.00
28448;BME280;15675;52.870;-1.416;2023-03-19T04:05:58;100622.00;;;6.79;100.00
28448;BME280;15675;52.870;-1.416;2023-03-19T04:08:24;100608.00;;;6.64;100.00
28448;BME280;15675;52.870;-1.416;2023-03-19T04:10:49;100607.91;;;6.61;100.00
28448;BME280;15675;52.870;-1.416;2023-03-19T04:13:15;100615.16;;;6.81;100.00
28448;BME280;15675;52.870;-1.416;2023-03-19T04:15:42;100620.22;;;6.74;100.00
28448;BME280;15675;52.870;-1.416;2023-03-19T04:18:08;100625.31;;;6.71;100.00
28448;BME280;15675;52.870;-1.416;2023-03-19T04:20:34;100626.59;;;6.97;100.00
28448;BME280;15675;52.870;-1.416;2023-03-19T04:23:02;100634.75;;;7.20;100.00
28448;BME280;15675;52.870;-1.416;2023-03-19T04:25:27;100631.97;;;7.07;100.00
28448;BME280;15675;52.870;-1.416;2023-03-19T04:27:56;100638.88;;;7.10;100.00
28448;BME280;15675;52.870;-1.416;2023-03-19T04:30:22;100646.91;;;7.25;100.00
28448;BME280;15675;52.870;-1.416;2023-03-19T04:32:49;100645.00;;;7.17;100.00
28448;BME280;15675;52.870;-1.416;2023-03-19T04:35:14;100659.03;;;6.82;100.00
28448;BME280;15675;52.870;-1.416;2023-03-19T04:37:40;100647.88;;;6.83;100.00
28448;BME280;15675;52.870;-1.416;2023-03-19T04:40:13;100649.44;;;6.75;100.00
28448;BME280;15675;52.870;-1.416;2023-03-19T04:42:39;100651.22;;;6.78;100.00
28448;BME280;15675;52.870;-1.416;2023-03-19T04:45:06;100648.72;;;6.82;100.00
28448;BME280;15675;52.870;-1.416;2023-03-19T04:47:32;100646.06;;;6.78;100.00
28448;BME280;15675;52.870;-1.416;2023-03-19T04:49:57;100647.88;;;6.83;100.00
28448;BME280;15675;52.870;-1.416;2023-03-19T04:52:23;100646.88;;;6.75;100.00
28448;BME280;15675;52.870;-1.416;2023-03-19T04:54:49;100664.44;;;6.95;100.00
28448;BME280;15675;52.870;-1.416;2023-03-19T04:57:14;100667.09;;;6.99;100.00
28448;BME280;15675;52.870;-1.416;2023-03-19T04:59:40;100663.72;;;7.03;100.00
28448;BME280;15675;52.870;-1.416;2023-03-19T05:02:06;100661.81;;;6.93;100.00
28448;BME280;15675;52.870;-1.416;2023-03-19T05:04:32;100671.19;;;6.88;100.00
28448;BME280;15675;52.870;-1.416;2023-03-19T05:06:58;100668.34;;;6.74;100.00
28448;BME280;15675;52.870;-1.416;2023-03-19T05:09:23;100669.41;;;6.85;100.00
28448;BME280;15675;52.870;-1.416;2023-03-19T05:11:49;100681.34;;;6.79;100.00
28448;BME280;15675;52.870;-1.416;2023-03-19T05:14:16;100678.91;;;6.86;100.00
28448;BME280;15675;52.870;-1.416;2023-03-19T05:16:41;100684.09;;;6.88;100.00
28448;BME280;15675;52.870;-1.416;2023-03-19T05:19:07;100682.53;;;6.96;100.00
28448;BME280;15675;52.870;-1.416;2023-03-19T05:21:32;100693.94;;;7.09;100.00
28448;BME280;15675;52.870;-1.416;2023-03-19T05:23:58;100694.47;;;6.91;100.00
28448;BME280;15675;52.870;-1.416;2023-03-19T05:26:24;100697.13;;;6.94;100.00
28448;BME280;15675;52.870;-1.416;2023-03-19T05:28:50;100696.72;;;6.74;100.00
28448;BME280;15675;52.870;-1.416;2023-03-19T05:31:15;100699.94;;;7.08;100.00
28448;BME280;15675;52.870;-1.416;2023-03-19T05:33:41;100699.53;;;6.86;100.00
28448;BME280;15675;52.870;-1.416;2023-03-19T05:36:07;100701.31;;;6.89;100.00
28448;BME280;15675;52.870;-1.416;2023-03-19T05:38:32;100710.59;;;6.79;100.00
28448;BME280;15675;52.870;-1.416;2023-03-19T05:41:03;100704.53;;;6.77;100.00
28448;BME280;15675;52.870;-1.416;2023-03-19T05:43:28;100701.88;;;6.74;100.00
28448;BME280;15675;52.870;-1.416;2023-03-19T05:45:54;100700.16;;;6.73;100.00
28448;BME280;15675;52.870;-1.416;2023-03-19T05:48:22;100704.75;;;6.45;100.00
28448;BME280;15675;52.870;-1.416;2023-03-19T05:50:48;100718.59;;;6.49;100.00
28448;BME280;15675;52.870;-1.416;2023-03-19T05:53:13;100723.22;;;6.65;100.00
28448;BME280;15675;52.870;-1.416;2023-03-19T05:55:39;100718.41;;;6.84;100.00
28448;BME280;15675;52.870;-1.416;2023-03-19T05:58:05;100722.41;;;7.14;100.00
28448;BME280;15675;52.870;-1.416;2023-03-19T06:00:32;100716.13;;;6.99;100.00
28448;BME280;15675;52.870;-1.416;2023-03-19T06:02:58;100727.78;;;6.79;100.00
28448;BME280;15675;52.870;-1.416;2023-03-19T06:05:23;100732.72;;;6.68;100.00
28448;BME280;15675;52.870;-1.416;2023-03-19T06:07:49;100729.03;;;6.99;100.00
28448;BME280;15675;52.870;-1.416;2023-03-19T06:10:15;100739.63;;;7.15;100.00
28448;BME280;15675;52.870;-1.416;2023-03-19T06:12:41;100750.97;;;6.76;100.00
28448;BME280;15675;52.870;-1.416;2023-03-19T06:15:08;100750.47;;;6.97;100.00
28448;BME280;15675;52.870;-1.416;2023-03-19T06:17:34;100753.66;;;7.29;100.00
28448;BME280;15675;52.870;-1.416;2023-03-19T06:20:00;100759.72;;;7.30;100.00
28448;BME280;15675;52.870;-1.416;2023-03-19T06:22:26;100756.72;;;7.08;100.00
28448;BME280;15675;52.870;-1.416;2023-03-19T06:24:51;100763.41;;;6.98;100.00
28448;BME280;15675;52.870;-1.416;2023-03-19T06:27:17;100761.16;;;7.15;100.00
28448;BME280;15675;52.870;-1.416;2023-03-19T06:29:43;100768.06;;;7.16;100.00
28448;BME280;15675;52.870;-1.416;2023-03-19T06:32:11;100767.97;;;7.10;100.00
28448;BME280;15675;52.870;-1.416;2023-03-19T06:34:37;100768.44;;;7.38;100.00
28448;BME280;15675;52.870;-1.416;2023-03-19T06:37:02;100776.72;;;7.18;100.00
28448;BME280;15675;52.870;-1.416;2023-03-19T06:39:28;100774.97;;;7.17;100.00
28448;BME280;15675;52.870;-1.416;2023-03-19T06:41:53;100789.44;;;7.09;100.00
28448;BME280;15675;52.870;-1.416;2023-03-19T06:44:21;100790.19;;;7.03;100.00
28448;BME280;15675;52.870;-1.416;2023-03-19T06:46:46;100790.19;;;7.03;100.00
28448;BME280;15675;52.870;-1.416;2023-03-19T06:49:12;100792.06;;;7.12;100.00
28448;BME280;15675;52.870;-1.416;2023-03-19T06:51:37;100793.22;;;7.28;100.00
28448;BME280;15675;52.870;-1.416;2023-03-19T06:54:03;100803.22;;;7.11;100.00
28448;BME280;15675;52.870;-1.416;2023-03-19T06:56:29;100804.41;;;7.27;100.00
28448;BME280;15675;52.870;-1.416;2023-03-19T06:58:55;100809.31;;;7.13;100.00
28448;BME280;15675;52.870;-1.416;2023-03-19T07:01:20;100804.97;;;7.12;100.00
28448;BME280;15675;52.870;-1.416;2023-03-19T07:03:47;100808.38;;;7.09;100.00
28448;BME280;15675;52.870;-1.416;2023-03-19T07:06:12;100808.50;;;7.16;100.00
28448;BME280;15675;52.870;-1.416;2023-03-19T07:08:39;100815.53;;;7.23;100.00
28448;BME280;15675;52.870;-1.416;2023-03-19T07:11:10;100816.41;;;7.25;100.00
28448;BME280;15675;52.870;-1.416;2023-03-19T07:13:36;100817.75;;;7.52;100.00
28448;BME280;15675;52.870;-1.416;2023-03-19T07:16:02;100817.06;;;7.62;100.00
28448;BME280;15675;52.870;-1.416;2023-03-19T07:18:28;100819.22;;;7.36;100.00
28448;BME280;15675;52.870;-1.416;2023-03-19T07:20:54;100832.91;;;7.32;100.00
28448;BME280;15675;52.870;-1.416;2023-03-19T07:23:19;100831.75;;;7.63;100.00
28448;BME280;15675;52.870;-1.416;2023-03-19T07:25:45;100832.25;;;7.43;100.00
28448;BME280;15675;52.870;-1.416;2023-03-19T07:28:12;100837.38;;;7.42;100.00
28448;BME280;15675;52.870;-1.416;2023-03-19T07:30:38;100840.88;;;7.44;100.00
28448;BME280;15675;52.870;-1.416;2023-03-19T07:33:05;100839.38;;;7.55;100.00
28448;BME280;15675;52.870;-1.416;2023-03-19T07:35:32;100835.84;;;7.52;100.00
28448;BME280;15675;52.870;-1.416;2023-03-19T07:37:57;100831.09;;;7.76;100.00
28448;BME280;15675;52.870;-1.416;2023-03-19T07:40:24;100830.16;;;7.71;100.00
28448;BME280;15675;52.870;-1.416;2023-03-19T07:42:49;100841.59;;;7.86;100.00
28448;BME280;15675;52.870;-1.416;2023-03-19T07:45:15;100845.16;;;7.92;100.00
28448;BME280;15675;52.870;-1.416;2023-03-19T07:47:41;100848.31;;;7.76;100.00
28448;BME280;15675;52.870;-1.416;2023-03-19T07:50:07;100851.69;;;7.72;100.00
28448;BME280;15675;52.870;-1.416;2023-03-19T07:52:33;100862.31;;;7.87;100.00
28448;BME280;15675;52.870;-1.416;2023-03-19T07:54:59;100855.38;;;7.85;100.00
28448;BME280;15675;52.870;-1.416;2023-03-19T07:57:24;100858.47;;;8.17;100.00
28448;BME280;15675;52.870;-1.416;2023-03-19T07:59:50;100856.72;;;8.15;100.00
28448;BME280;15675;52.870;-1.416;2023-03-19T08:02:17;100861.66;;;8.01;100.00
28448;BME280;15675;52.870;-1.416;2023-03-19T08:04:43;100871.31;;;8.09;100.00
28448;BME280;15675;52.870;-1.416;2023-03-19T08:07:09;100871.59;;;8.28;100.00
28448;BME280;15675;52.870;-1.416;2023-03-19T08:09:39;100877.47;;;8.19;100.00
28448;BME280;15675;52.870;-1.416;2023-03-19T08:12:05;100883.00;;;8.41;100.00
28448;BME280;15675;52.870;-1.416;2023-03-19T08:14:32;100881.38;;;8.46;100.00
28448;BME280;15675;52.870;-1.416;2023-03-19T08:16:58;100892.03;;;8.12;100.00
28448;BME280;15675;52.870;-1.416;2023-03-19T08:19:23;100894.81;;;8.26;100.00
28448;BME280;15675;52.870;-1.416;2023-03-19T08:21:49;100904.56;;;8.43;100.00
28448;BME280;15675;52.870;-1.416;2023-03-19T08:24:15;100899.13;;;8.26;100.00
28448;BME280;15675;52.870;-1.416;2023-03-19T08:26:41;100890.31;;;8.68;100.00
28448;BME280;15675;52.870;-1.416;2023-03-19T08:29:07;100890.13;;;8.56;100.00
28448;BME280;15675;52.870;-1.416;2023-03-19T08:31:32;100900.56;;;8.62;100.00
28448;BME280;15675;52.870;-1.416;2023-03-19T08:33:58;100894.81;;;8.83;100.00
28448;BME280;15675;52.870;-1.416;2023-03-19T08:36:30;100901.94;;;8.98;100.00
28448;BME280;15675;52.870;-1.416;2023-03-19T08:38:56;100910.06;;;9.27;100.00
28448;BME280;15675;52.870;-1.416;2023-03-19T08:41:23;100903.63;;;8.94;100.00
28448;BME280;15675;52.870;-1.416;2023-03-19T08:43:49;100907.69;;;8.75;100.00
28448;BME280;15675;52.870;-1.416;2023-03-19T08:46:15;100915.16;;;9.18;100.00
28448;BME280;15675;52.870;-1.416;2023-03-19T08:48:41;100914.59;;;9.44;100.00
28448;BME280;15675;52.870;-1.416;2023-03-19T08:51:07;100919.63;;;9.31;100.00
28448;BME280;15675;52.870;-1.416;2023-03-19T08:53:34;100910.34;;;9.50;100.00
28448;BME280;15675;52.870;-1.416;2023-03-19T08:56:02;100906.13;;;9.60;100.00
28448;BME280;15675;52.870;-1.416;2023-03-19T08:58:28;100912.19;;;9.62;100.00
28448;BME280;15675;52.870;-1.416;2023-03-19T09:01:06;100924.75;;;9.28;100.00
28448;BME280;15675;52.870;-1.416;2023-03-19T09:03:33;100926.41;;;9.22;100.00
28448;BME280;15675;52.870;-1.416;2023-03-19T09:06:00;100930.09;;;9.41;100.00
28448;BME280;15675;52.870;-1.416;2023-03-19T09:08:26;100929.16;;;9.36;100.00
28448;BME280;15675;52.870;-1.416;2023-03-19T09:10:56;100940.72;;;9.62;100.00
28448;BME280;15675;52.870;-1.416;2023-03-19T09:13:22;100938.28;;;9.76;100.00
28448;BME280;15675;52.870;-1.416;2023-03-19T09:15:48;100939.78;;;9.59;100.00
28448;BME280;15675;52.870;-1.416;2023-03-19T09:18:15;100941.81;;;9.11;100.00
28448;BME280;15675;52.870;-1.416;2023-03-19T09:20:41;100932.34;;;9.14;100.00
28448;BME280;15675;52.870;-1.416;2023-03-19T09:23:07;100933.72;;;9.57;100.00
28448;BME280;15675;52.870;-1.416;2023-03-19T09:25:33;100938.69;;;9.37;100.00
28448;BME280;15675;52.870;-1.416;2023-03-19T09:27:58;100937.94;;;9.47;100.00
28448;BME280;15675;52.870;-1.416;2023-03-19T09:30:24;100939.06;;;9.71;100.00
28448;BME280;15675;52.870;-1.416;2023-03-19T09:32:49;100948.31;;;9.48;100.00
28448;BME280;15675;52.870;-1.416;2023-03-19T09:35:15;100948.53;;;9.67;100.00
28448;BME280;15675;52.870;-1.416;2023-03-19T09:37:41;100960.63;;;9.01;100.00
28448;BME280;15675;52.870;-1.416;2023-03-19T09:40:09;100951.13;;;8.96;100.00
28448;BME280;15675;52.870;-1.416;2023-03-19T09:45:31;100961.34;;;8.89;100.00
28448;BME280;15675;52.870;-1.416;2023-03-19T09:48:00;100973.28;;;9.42;100.00
28448;BME280;15675;52.870;-1.416;2023-03-19T09:50:28;100973.97;;;9.28;100.00
28448;BME280;15675;52.870;-1.416;2023-03-19T09:55:51;100952.28;;;9.95;100.00
28448;BME280;15675;52.870;-1.416;2023-03-19T09:58:21;100953.22;;;10.00;100.00
28448;BME280;15675;52.870;-1.416;2023-03-19T10:00:51;100960.69;;;9.71;100.00
28448;BME280;15675;52.870;-1.416;2023-03-19T10:03:31;100977.88;;;9.66;100.00
28448;BME280;15675;52.870;-1.416;2023-03-19T10:06:29;100980.50;;;9.67;100.00
28448;BME280;15675;52.870;-1.416;2023-03-19T10:12:47;100991.78;;;9.73;98.62
28448;BME280;15675;52.870;-1.416;2023-03-19T10:15:21;100998.59;;;9.64;96.48
28448;BME280;15675;52.870;-1.416;2023-03-19T10:18:06;100994.31;;;9.66;96.30
28448;BME280;15675;52.870;-1.416;2023-03-19T10:20:45;100994.22;;;9.59;95.34
28448;BME280;15675;52.870;-1.416;2023-03-19T10:25:42;100997.03;;;9.77;96.37
28448;BME280;15675;52.870;-1.416;2023-03-19T10:28:16;100994.66;;;9.99;94.37
28448;BME280;15675;52.870;-1.416;2023-03-19T10:30:46;100987.97;;;10.19;96.56
28448;BME280;15675;52.870;-1.416;2023-03-19T10:33:30;101007.53;;;9.90;97.80
28448;BME280;15675;52.870;-1.416;2023-03-19T10:36:04;101006.78;;;10.01;97.27
28448;BME280;15675;52.870;-1.416;2023-03-19T10:38:39;101011.16;;;10.06;97.81
28448;BME280;15675;52.870;-1.416;2023-03-19T10:41:23;101011.00;;;9.90;96.88
28448;BME280;15675;52.870;-1.416;2023-03-19T10:43:55;101011.34;;;9.47;96.54
28448;BME280;15675;52.870;-1.416;2023-03-19T10:46:23;101006.53;;;9.77;96.81
28448;BME280;15675;52.870;-1.416;2023-03-19T10:48:48;101015.06;;;9.66;94.29
28448;BME280;15675;52.870;-1.416;2023-03-19T10:51:21;101006.13;;;10.21;95.25
28448;BME280;15675;52.870;-1.416;2023-03-19T10:53:52;101010.31;;;10.05;96.00
28448;BME280;15675;52.870;-1.416;2023-03-19T10:56:21;101007.81;;;10.17;96.39
28448;BME280;15675;52.870;-1.416;2023-03-19T10:59:02;101021.16;;;9.72;98.18
28448;BME280;15675;52.870;-1.416;2023-03-19T11:01:39;101030.63;;;9.66;98.22
28448;BME280;15675;52.870;-1.416;2023-03-19T11:04:20;101028.41;;;10.00;99.82
28448;BME280;15675;52.870;-1.416;2023-03-19T11:06:54;101024.72;;;9.80;95.26
28448;BME280;15675;52.870;-1.416;2023-03-19T11:09:41;101038.41;;;9.70;94.89
28448;BME280;15675;52.870;-1.416;2023-03-19T11:14:46;101028.63;;;10.19;95.49
28448;BME280;15675;52.870;-1.416;2023-03-19T11:19:43;101027.81;;;10.25;97.00
28448;BME280;15675;52.870;-1.416;2023-03-19T11:22:23;101027.06;;;10.36;98.19
28448;BME280;15675;52.870;-1.416;2023-03-19T11:24:55;101014.84;;;10.25;97.92
28448;BME280;15675;52.870;-1.416;2023-03-19T11:27:29;101043.94;;;9.99;100.00
28448;BME280;15675;52.870;-1.416;2023-03-19T11:29:55;101049.75;;;9.78;100.00
28448;BME280;15675;52.870;-1.416;2023-03-19T11:33:04;101032.84;;;10.09;100.00
28448;BME280;15675;52.870;-1.416;2023-03-19T11:35:32;101026.75;;;10.07;99.23
28448;BME280;15675;52.870;-1.416;2023-03-19T11:38:02;101032.72;;;10.01;99.00
28448;BME280;15675;52.870;-1.416;2023-03-19T11:48:52;101036.78;;;10.56;97.39
28448;BME280;15675;52.870;-1.416;2023-03-19T11:51:43;101034.88;;;10.38;95.33
28448;BME280;15675;52.870;-1.416;2023-03-19T11:54:21;101027.31;;;10.66;94.60
28448;BME280;15675;52.870;-1.416;2023-03-19T11:56:59;101028.09;;;10.52;95.24
28448;BME280;15675;52.870;-1.416;2023-03-19T12:05:17;101045.31;;;10.46;100.00
28448;BME280;15675;52.870;-1.416;2023-03-19T12:10:32;101033.16;;;10.40;95.51
28448;BME280;15675;52.870;-1.416;2023-03-19T12:16:06;101028.25;;;10.74;88.10
28448;BME280;15675;52.870;-1.416;2023-03-19T12:18:39;101021.09;;;10.44;85.63
28448;BME280;15675;52.870;-1.416;2023-03-19T12:26:34;101027.97;;;10.42;83.21
28448;BME280;15675;52.870;-1.416;2023-03-19T12:29:22;101032.22;;;10.33;82.10
28448;BME280;15675;52.870;-1.416;2023-03-19T12:32:17;101041.28;;;9.93;83.42
28448;BME280;15675;52.870;-1.416;2023-03-19T12:34:51;101050.97;;;10.08;82.92
28448;BME280;15675;52.870;-1.416;2023-03-19T12:37:45;101008.31;;;9.82;82.23
28448;BME280;15675;52.870;-1.416;2023-03-19T12:43:07;101037.84;;;9.95;79.23
28448;BME280;15675;52.870;-1.416;2023-03-19T12:45:42;101039.00;;;10.22;79.25
28448;BME280;15675;52.870;-1.416;2023-03-19T12:48:10;101036.91;;;9.89;79.03
28448;BME280;15675;52.870;-1.416;2023-03-19T12:50:40;101052.53;;;9.93;79.59
28448;BME280;15675;52.870;-1.416;2023-03-19T12:53:18;101043.59;;;10.43;80.02
28448;BME280;15675;52.870;-1.416;2023-03-19T12:55:52;101039.19;;;10.38;77.00
28448;BME280;15675;52.870;-1.416;2023-03-19T12:58:45;101051.91;;;10.16;76.88
28448;BME280;15675;52.870;-1.416;2023-03-19T13:01:19;101051.00;;;10.12;77.06
28448;BME280;15675;52.870;-1.416;2023-03-19T13:03:58;101045.00;;;10.16;77.91
28448;BME280;15675;52.870;-1.416;2023-03-19T13:06:57;101042.72;;;10.44;76.45
28448;BME280;15675;52.870;-1.416;2023-03-19T13:09:37;101037.44;;;10.35;76.24
28448;BME280;15675;52.870;-1.416;2023-03-19T13:12:24;101052.84;;;10.23;75.68
28448;BME280;15675;52.870;-1.416;2023-03-19T13:23:24;101067.91;;;9.78;86.86
28448;BME280;15675;52.870;-1.416;2023-03-19T13:25:55;101071.78;;;10.15;89.64
28448;BME280;15675;52.870;-1.416;2023-03-19T13:28:52;101069.44;;;10.34;89.29
28448;BME280;15675;52.870;-1.416;2023-03-19T13:31:22;101063.97;;;10.12;87.95
28448;BME280;15675;52.870;-1.416;2023-03-19T13:33:52;101070.72;;;9.96;88.15
28448;BME280;15675;52.870;-1.416;2023-03-19T13:36:26;101066.63;;;10.17;87.23
28448;BME280;15675;52.870;-1.416;2023-03-19T13:38:55;101065.03;;;10.31;87.12
28448;BME280;15675;52.870;-1.416;2023-03-19T13:43:57;101075.75;;;9.82;88.71
28448;BME280;15675;52.870;-1.416;2023-03-19T13:46:35;101077.50;;;9.85;89.81
28448;BME280;15675;52.870;-1.416;2023-03-19T13:49:09;101069.97;;;10.07;88.07
28448;BME280;15675;52.870;-1.416;2023-03-19T13:51:47;101071.25;;;10.44;87.77